createdAt,value
2019-04-23T00:00:45.498Z,77.30
2019-04-23T00:03:13.958Z,76.97
2019-04-23T00:05:47.797Z,77.06
2019-04-23T00:08:19.672Z,77.24
2019-04-23T00:10:53.667Z,77.44
2019-04-23T00:13:26.879Z,77.65
2019-04-23T00:15:58.679Z,77.29
2019-04-23T00:18:25.233Z,77.56
2019-04-23T00:20:47.835Z,78.07
2019-04-23T00:23:32.753Z,77.96
2019-04-23T00:26:18.026Z,77.95
2019-04-23T00:28:32.845Z,78.18
2019-04-23T00:31:05.707Z,77.34
2019-04-23T00:35:56.574Z,77.68
2019-04-23T00:38:36.119Z,77.74
2019-04-23T00:40:58.319Z,77.89
2019-04-23T00:43:30.308Z,77.70
2019-04-23T00:45:55.119Z,78.29
2019-04-23T00:51:09.165Z,78.95
2019-04-23T00:53:27.018Z,78.34
2019-04-23T00:56:22.093Z,79.33
2019-04-23T00:58:36.592Z,79.21
2019-04-23T01:00:57.762Z,79.21
2019-04-23T01:03:26.692Z,78.86
2019-04-23T01:06:00.651Z,78.64
2019-04-23T01:08:29.736Z,78.96
2019-04-23T01:11:01.938Z,79.05
2019-04-23T01:13:40.081Z,78.70
2019-04-23T01:16:05.402Z,78.76
2019-04-23T01:21:07.591Z,79.37
2019-04-23T01:23:59.826Z,79.25
2019-04-23T01:26:50.321Z,79.09
2019-04-23T01:29:19.936Z,78.78
2019-04-23T01:31:53.546Z,78.94
2019-04-23T01:34:27.498Z,78.94
2019-04-23T01:36:54.163Z,78.47
2019-04-23T01:39:23.206Z,78.27
2019-04-23T01:42:01.971Z,78.43
2019-04-23T01:44:30.178Z,78.46
2019-04-23T01:46:54.169Z,77.95
2019-04-23T01:49:33.471Z,77.18
2019-04-23T01:51:54.876Z,77.32
2019-04-23T01:54:25.766Z,77.63
2019-04-23T01:56:47.219Z,78.08
2019-04-23T01:59:26.322Z,77.81
2019-04-23T02:04:28.929Z,78.98
2019-04-23T02:09:26.029Z,79.07
2019-04-23T02:12:02.204Z,78.62
2019-04-23T02:14:28.100Z,78.03
2019-04-23T02:16:55.533Z,78.56
2019-04-23T02:21:57.636Z,78.26
2019-04-23T02:24:35.989Z,76.30
2019-04-23T02:26:57.597Z,76.78
2019-04-23T02:32:19.690Z,76.47
2019-04-23T02:39:55.451Z,74.74
2019-04-23T02:47:23.136Z,72.18
2019-04-23T02:52:27.405Z,72.84
2019-04-23T02:57:05.752Z,72.06
2019-04-23T03:00:12.519Z,72.70
2019-04-23T03:07:26.187Z,73.20
2019-04-23T03:12:26.595Z,73.94
2019-04-23T03:14:52.879Z,74.22
2019-04-23T03:17:59.332Z,74.34
2019-04-23T03:20:15.730Z,75.08
2019-04-23T03:23:03.640Z,75.76
2019-04-23T03:25:30.898Z,75.60
2019-04-23T03:27:50.211Z,76.54
2019-04-23T03:30:48.370Z,76.94
2019-04-23T03:35:09.744Z,78.62
2019-04-23T03:37:55.918Z,77.79
2019-04-23T03:40:21.421Z,77.19
2019-04-23T03:43:02.422Z,76.34
2019-04-23T03:45:43.607Z,76.90
2019-04-23T03:48:03.247Z,76.11
2019-04-23T03:50:32.587Z,76.08
2019-04-23T03:52:55.283Z,76.51
2019-04-23T03:55:51.707Z,76.79
2019-04-23T03:57:54.146Z,76.70
2019-04-23T04:00:32.938Z,77.02
2019-04-23T04:03:23.035Z,76.75
2019-04-23T04:05:45.652Z,75.85
2019-04-23T04:08:07.925Z,76.43
2019-04-23T04:10:25.641Z,75.93
2019-04-23T04:13:02.399Z,75.83
2019-04-23T04:18:11.815Z,74.93
2019-04-23T04:20:32.957Z,74.64
2019-04-23T04:23:07.897Z,74.81
2019-04-23T04:33:26.216Z,73.99
2019-04-23T04:35:27.176Z,73.46
2019-04-23T04:43:13.203Z,73.29
2019-04-23T04:45:43.147Z,74.45
2019-04-23T04:48:15.979Z,72.03
2019-04-23T04:50:32.804Z,72.92
2019-04-23T04:53:16.729Z,73.10
2019-04-23T04:55:36.200Z,72.57
2019-04-23T05:00:43.135Z,72.76
2019-04-23T05:05:59.324Z,73.05
2019-04-23T05:08:05.238Z,71.93
2019-04-23T05:13:24.711Z,72.06
2019-04-23T05:15:37.393Z,72.47
2019-04-23T05:23:15.900Z,72.18
2019-04-23T05:25:42.868Z,72.90
2019-04-23T05:33:11.853Z,70.37
2019-04-23T05:36:04.330Z,70.71
2019-04-23T05:38:18.629Z,69.18
2019-04-23T05:43:11.837Z,69.53
2019-04-23T05:45:44.645Z,70.02
2019-04-23T05:48:13.388Z,70.25
2019-04-23T05:53:11.408Z,69.28
2019-04-23T05:55:43.070Z,69.09
2019-04-23T05:58:16.531Z,68.97
2019-04-23T06:00:54.468Z,68.64
2019-04-23T06:03:15.955Z,68.95
2019-04-23T06:05:46.499Z,67.51
2019-04-23T06:08:28.530Z,67.32
2019-04-23T06:13:18.676Z,66.73
2019-04-23T06:15:55.855Z,67.02
2019-04-23T06:18:28.660Z,67.10
2019-04-23T06:21:00.181Z,66.08
2019-04-23T06:23:30.411Z,66.48
2019-04-23T06:26:21.772Z,66.64
2019-04-23T06:28:22.466Z,67.10
2019-04-23T06:30:58.191Z,65.09
2019-04-23T06:35:58.652Z,65.04
2019-04-23T06:38:40.405Z,64.39
2019-04-23T06:40:53.981Z,63.92
2019-04-23T06:43:33.166Z,62.58
2019-04-23T06:45:59.749Z,62.82
2019-04-23T06:51:04.291Z,63.66
2019-04-23T06:53:30.643Z,63.59
2019-04-23T06:56:03.737Z,63.33
2019-04-23T06:58:32.724Z,62.41
2019-04-23T07:01:02.050Z,61.96
2019-04-23T07:03:38.349Z,62.16
2019-04-23T07:08:56.238Z,60.96
2019-04-23T07:11:18.715Z,61.26
2019-04-23T07:13:49.152Z,60.43
2019-04-23T07:16:22.916Z,60.43
2019-04-23T07:18:43.483Z,60.89
2019-04-23T07:21:15.334Z,61.07
2019-04-23T07:23:52.670Z,60.33
2019-04-23T07:26:26.037Z,60.08
2019-04-23T07:28:43.761Z,60.27
2019-04-23T07:31:26.546Z,59.19
2019-04-23T07:33:44.713Z,60.15
2019-04-23T07:36:20.150Z,58.33
2019-04-23T07:38:56.981Z,59.52
2019-04-23T07:41:36.123Z,58.13
2019-04-23T07:44:04.915Z,57.08
2019-04-23T07:47:03.319Z,58.94
2019-04-23T07:49:16.343Z,57.24
2019-04-23T07:52:00.781Z,56.94
2019-04-23T07:54:22.770Z,57.31
2019-04-23T07:56:53.367Z,56.69
2019-04-23T07:59:30.867Z,57.40
2019-04-23T08:01:50.877Z,57.12
2019-04-23T08:04:16.607Z,56.57
2019-04-23T08:06:52.479Z,55.63
2019-04-23T08:11:50.748Z,56.83
2019-04-23T08:14:15.450Z,54.85
2019-04-23T08:16:42.509Z,54.43
2019-04-23T08:19:25.320Z,55.50
2019-04-23T08:21:58.237Z,55.37
2019-04-23T08:24:46.560Z,55.94
2019-04-23T08:29:41.445Z,54.65
2019-04-23T08:32:16.804Z,54.82
2019-04-23T08:37:15.018Z,54.39
2019-04-23T08:39:43.189Z,53.92
2019-04-23T08:42:32.593Z,52.86
2019-04-23T08:45:10.745Z,54.86
2019-04-23T08:47:27.061Z,53.69
2019-04-23T08:50:17.122Z,51.83
2019-04-23T08:52:48.373Z,53.35
2019-04-23T08:55:02.865Z,54.96
2019-04-23T08:57:29.293Z,54.81
2019-04-23T09:00:02.747Z,52.73
2019-04-23T09:02:37.429Z,52.83
2019-04-23T09:05:11.411Z,52.15
2019-04-23T09:07:27.613Z,51.88
2019-04-23T09:10:08.387Z,53.40
2019-04-23T09:12:35.328Z,52.52
2019-04-23T09:15:09.974Z,53.84
2019-04-23T09:17:34.111Z,52.16
2019-04-23T09:20:20.385Z,51.34
2019-04-23T09:22:46.572Z,50.55
2019-04-23T09:25:06.581Z,50.77
2019-04-23T09:27:34.683Z,50.30
2019-04-23T09:30:08.009Z,51.09
2019-04-23T09:32:29.813Z,50.65
2019-04-23T09:35:14.475Z,47.54
2019-04-23T09:40:28.544Z,45.16
2019-04-23T09:43:00.484Z,43.21
2019-04-23T09:45:33.876Z,41.30
2019-04-23T09:48:03.591Z,40.28
2019-04-23T09:50:36.617Z,40.57
2019-04-23T09:53:25.191Z,40.30
2019-04-23T09:58:08.166Z,40.48
2019-04-23T10:03:01.530Z,40.42
2019-04-23T10:05:28.876Z,40.35
2019-04-23T10:07:54.343Z,41.94
2019-04-23T10:10:16.329Z,40.67
2019-04-23T10:12:46.055Z,43.21
2019-04-23T10:15:22.810Z,44.81
2019-04-23T10:17:46.314Z,44.30
2019-04-23T10:20:16.398Z,44.94
2019-04-23T10:22:46.262Z,46.12
2019-04-23T10:25:15.403Z,45.27
2019-04-23T10:27:45.247Z,45.77
2019-04-23T10:30:14.565Z,46.60
2019-04-23T10:32:43.244Z,46.45
2019-04-23T10:35:22.154Z,46.20
2019-04-23T10:37:48.979Z,46.67
2019-04-23T10:40:18.787Z,46.65
2019-04-23T10:42:45.953Z,47.32
2019-04-23T10:45:31.608Z,46.88
2019-04-23T10:51:28.722Z,48.58
2019-04-23T10:53:52.412Z,48.46
2019-04-23T10:56:34.952Z,49.18
2019-04-23T10:59:01.519Z,46.70
2019-04-23T11:01:34.642Z,48.35
2019-04-23T11:04:10.654Z,48.23
2019-04-23T11:06:30.784Z,48.46
2019-04-23T11:09:01.655Z,49.09
2019-04-23T11:11:34.521Z,50.56
2019-04-23T11:14:13.217Z,52.68
2019-04-23T11:16:50.765Z,53.30
2019-04-23T11:19:10.746Z,54.34
2019-04-23T11:21:42.733Z,53.55
2019-04-23T11:24:19.021Z,53.59
2019-04-23T11:26:44.347Z,54.76
2019-04-23T11:29:15.186Z,55.42
2019-04-23T11:31:43.443Z,55.99
2019-04-23T11:34:08.054Z,56.84
2019-04-23T11:41:41.929Z,56.28
2019-04-23T11:44:13.547Z,57.31
2019-04-23T11:51:54.000Z,56.41
2019-04-23T11:54:10.872Z,56.48
2019-04-23T11:57:12.286Z,56.21
2019-04-23T11:59:21.663Z,56.73
2019-04-23T12:07:11.056Z,56.54
2019-04-23T12:09:56.724Z,57.20
2019-04-23T12:14:47.257Z,57.20
2019-04-23T12:22:29.601Z,56.17
2019-04-23T12:25:06.572Z,56.94
2019-04-23T12:27:31.252Z,57.66
2019-04-23T12:30:00.806Z,57.68
2019-04-23T12:32:48.440Z,58.39
2019-04-23T12:35:16.641Z,57.74
2019-04-23T12:37:41.436Z,58.22
2019-04-23T12:40:15.362Z,58.21
2019-04-23T12:42:57.064Z,59.17
2019-04-23T12:50:38.071Z,59.11
2019-04-23T12:57:40.242Z,59.85
2019-04-23T13:00:19.146Z,59.97
2019-04-23T13:02:44.603Z,59.79
2019-04-23T13:05:16.700Z,60.01
2019-04-23T13:07:50.677Z,61.12
2019-04-23T13:10:17.515Z,61.02
2019-04-23T13:15:15.860Z,58.63
2019-04-23T13:17:49.988Z,57.91
2019-04-23T13:20:23.183Z,59.37
2019-04-23T13:22:57.004Z,59.96
2019-04-23T13:30:37.453Z,55.86
2019-04-23T13:33:07.998Z,54.66
2019-04-23T13:40:42.119Z,54.68
2019-04-23T13:43:03.919Z,53.83
2019-04-23T13:45:56.353Z,54.34
2019-04-23T13:48:12.826Z,54.07
2019-04-23T13:50:51.151Z,54.66
2019-04-23T13:53:32.024Z,54.11
2019-04-23T13:55:26.783Z,53.65
2019-04-23T13:58:07.578Z,55.38
2019-04-23T14:00:44.710Z,55.58
2019-04-23T14:03:03.981Z,56.34
2019-04-23T14:05:43.751Z,56.13
2019-04-23T14:08:22.885Z,55.34
2019-04-23T14:10:44.830Z,55.38
2019-04-23T14:13:37.783Z,54.22
2019-04-23T14:15:53.957Z,54.44
2019-04-23T14:18:41.963Z,54.49
2019-04-23T14:20:53.158Z,54.94
2019-04-23T14:25:59.649Z,55.86
2019-04-23T14:28:28.749Z,54.72
2019-04-23T14:30:54.209Z,54.92
2019-04-23T14:33:24.896Z,54.08
2019-04-23T14:43:48.749Z,52.79
2019-04-23T14:46:27.125Z,52.85
2019-04-23T14:51:04.730Z,52.49
2019-04-23T14:53:26.869Z,53.34
2019-04-23T14:58:36.488Z,53.62
2019-04-23T15:01:16.265Z,53.61
2019-04-23T15:03:33.256Z,52.98
2019-04-23T15:06:12.660Z,53.30
2019-04-23T15:08:44.592Z,53.80
2019-04-23T15:11:13.060Z,53.37
2019-04-23T15:13:27.548Z,53.61
2019-04-23T15:16:11.386Z,53.26
2019-04-23T15:18:59.847Z,53.70
2019-04-23T15:21:37.909Z,54.60
2019-04-23T15:24:00.195Z,52.44
2019-04-23T15:27:23.031Z,53.38
2019-04-23T15:28:26.488Z,53.13
2019-04-23T15:33:55.271Z,54.79
2019-04-23T15:38:53.466Z,54.13
2019-04-23T15:41:29.472Z,54.94
2019-04-23T15:43:53.137Z,55.37
2019-04-23T15:46:26.968Z,54.87
2019-04-23T15:49:01.235Z,55.20
2019-04-23T15:51:30.896Z,55.12
2019-04-23T15:53:51.378Z,55.20
2019-04-23T15:56:29.227Z,55.68
2019-04-23T15:59:02.535Z,55.26
2019-04-23T16:01:29.277Z,54.38
2019-04-23T16:03:25.127Z,55.71
2019-04-23T16:05:53.222Z,55.68
2019-04-23T16:08:59.381Z,56.74
2019-04-23T16:11:33.578Z,56.82
2019-04-23T16:19:05.493Z,56.11
2019-04-23T16:21:38.918Z,56.31
2019-04-23T16:24:01.227Z,55.66
2019-04-23T16:26:32.665Z,56.49
2019-04-23T16:29:21.150Z,56.71
2019-04-23T16:34:15.151Z,56.33
2019-04-23T16:36:32.546Z,56.33
2019-04-23T16:41:30.863Z,57.04
2019-04-23T16:44:03.298Z,57.22
2019-04-23T16:46:31.387Z,57.03
2019-04-23T16:54:09.978Z,57.07
2019-04-23T16:59:15.488Z,58.20
2019-04-23T17:01:35.187Z,58.21
2019-04-23T17:04:11.441Z,58.82
2019-04-23T17:06:36.341Z,58.36
2019-04-23T17:14:09.208Z,58.15
2019-04-23T17:16:34.642Z,57.65
2019-04-23T17:19:10.401Z,58.74
2019-04-23T17:21:53.295Z,58.61
2019-04-23T17:24:16.868Z,57.53
2019-04-23T17:26:36.106Z,58.19
2019-04-23T17:29:21.752Z,58.10
2019-04-23T17:31:44.844Z,58.14
2019-04-23T17:34:17.102Z,59.29
2019-04-23T17:36:40.333Z,57.80
2019-04-23T17:39:16.347Z,59.49
2019-04-23T17:47:09.676Z,59.53
2019-04-23T17:49:35.249Z,59.23
2019-04-23T17:52:11.486Z,59.21
2019-04-23T17:54:35.987Z,59.12
2019-04-23T17:57:07.522Z,59.83
2019-04-23T18:00:05.386Z,59.57
2019-04-23T18:07:39.642Z,60.93
2019-04-23T18:14:52.477Z,61.11
2019-04-23T18:17:30.391Z,61.16
2019-04-23T18:20:05.040Z,61.79
2019-04-23T18:25:16.874Z,62.60
2019-04-23T18:27:58.198Z,62.50
2019-04-23T18:33:40.642Z,63.23
2019-04-23T18:38:14.540Z,63.89
2019-04-23T18:40:55.219Z,64.43
2019-04-23T18:43:21.077Z,64.32
2019-04-23T18:48:38.864Z,65.29
2019-04-23T18:53:40.813Z,66.46
2019-04-23T18:56:06.550Z,66.66
2019-04-23T18:58:35.043Z,67.15
2019-04-23T19:01:05.145Z,67.59
2019-04-23T19:03:51.777Z,68.00
2019-04-23T19:11:47.573Z,68.63
2019-04-23T19:14:30.575Z,68.41
2019-04-23T19:16:50.570Z,68.81
2019-04-23T19:19:04.531Z,68.87
2019-04-23T19:21:57.547Z,69.39
2019-04-23T19:24:04.798Z,69.75
2019-04-23T19:29:13.916Z,69.50
2019-04-23T19:31:54.839Z,69.70
2019-04-23T19:34:29.856Z,69.37
2019-04-23T19:37:01.318Z,69.04
2019-04-23T19:39:26.363Z,69.68
2019-04-23T19:41:59.446Z,69.47
2019-04-23T19:44:25.689Z,69.55
2019-04-23T19:47:03.245Z,69.94
2019-04-23T19:49:26.997Z,70.26
2019-04-23T19:51:53.179Z,70.72
2019-04-23T19:56:58.209Z,70.59
2019-04-23T19:59:35.371Z,70.61
2019-04-23T20:02:04.247Z,71.07
2019-04-23T20:04:29.106Z,71.36
2019-04-23T20:12:00.998Z,72.47
2019-04-23T20:14:32.430Z,72.25
2019-04-23T20:19:30.032Z,73.02
2019-04-23T20:27:06.127Z,73.41
2019-04-23T20:34:49.741Z,73.96
2019-04-23T20:37:05.672Z,74.53
2019-04-23T20:52:17.129Z,75.46
2019-04-23T20:54:56.918Z,75.70
2019-04-23T21:00:12.081Z,75.77
2019-04-23T21:05:15.438Z,75.89
2019-04-23T21:07:54.268Z,76.39
2019-04-23T21:17:58.992Z,76.00
2019-04-23T21:20:30.096Z,75.98
2019-04-23T21:22:58.987Z,75.84
2019-04-23T21:25:28.358Z,76.30
2019-04-23T21:27:55.423Z,75.76
2019-04-23T21:30:59.357Z,75.96
2019-04-23T21:33:11.988Z,76.19
2019-04-23T21:36:12.511Z,75.66
2019-04-23T21:38:51.216Z,76.19
2019-04-23T21:41:21.476Z,76.55
2019-04-23T21:43:47.523Z,77.19
2019-04-23T21:48:53.680Z,77.51
2019-04-23T21:51:11.460Z,77.82
2019-04-23T21:53:42.195Z,78.04
2019-04-23T21:56:09.345Z,78.43
2019-04-23T21:58:48.967Z,78.89
2019-04-23T22:01:24.449Z,79.13
2019-04-23T22:04:05.268Z,79.06
2019-04-23T22:06:25.504Z,79.85
2019-04-23T22:08:54.457Z,80.09
2019-04-23T22:13:57.833Z,80.01
2019-04-23T22:16:29.770Z,80.45
2019-04-23T22:19:04.982Z,80.39
2019-04-23T22:21:20.874Z,80.62
2019-04-23T22:23:58.281Z,80.10
2019-04-23T22:26:28.584Z,81.17
2019-04-23T22:31:33.785Z,80.48
2019-04-23T22:34:06.243Z,79.69
2019-04-23T22:38:52.777Z,80.42
2019-04-23T22:43:59.396Z,80.19
2019-04-23T22:46:26.355Z,79.53
2019-04-23T22:49:08.703Z,80.34
2019-04-23T22:51:29.357Z,80.69
2019-04-23T22:54:02.817Z,80.71
2019-04-23T22:56:25.605Z,80.57
2019-04-23T22:59:09.653Z,80.73
2019-04-23T23:01:48.888Z,80.17
2019-04-23T23:04:00.170Z,80.08
2019-04-23T23:06:46.635Z,80.53
2019-04-23T23:09:17.677Z,80.59
2019-04-23T23:11:40.558Z,80.62
2019-04-23T23:16:31.739Z,80.21
2019-04-23T23:19:07.102Z,80.00
2019-04-23T23:21:43.056Z,80.00
2019-04-23T23:29:00.845Z,79.77
2019-04-23T23:31:39.747Z,79.71
2019-04-23T23:36:38.998Z,79.93
2019-04-23T23:41:43.435Z,79.28
2019-04-23T23:44:28.086Z,79.37
2019-04-23T23:49:13.854Z,79.80
2019-04-23T23:51:39.705Z,80.20
2019-04-23T23:54:08.228Z,79.68
2019-04-23T23:56:39.119Z,78.62
2019-04-23T23:59:10.380Z,79.31
